Oakland, Kentucky
Current Conditions -  °F | °C
As of 3:53 AM on Thursday 27 Nov 2014 (Local Time) from KBWG Reporting Station
Overcast Overcast  
Wind Chill: 29°   Ceiling: 600
Heat Index: 35°   Visibility: 8mi
Dew Point: 32°   Wind: 8mph
Humidity: 89%   Direction: 310°NW
Pressure: 30.19"   Gusts: 17mph
Location:  37.04°N, 86.25°W
Report Text: KBWG 270953Z AUTO 31007G15KT 8SM OVC006 02/00 A3019 RMK AO2 SNE06 SLP224 P0000 T00170000
Loading
Personal Weather Stations






























Interactive Weather Map New forecast layout! Learn more

10-Day Weather Forecast

Advertisements
Track Severe Weather on mobile